Portada
METAR-TAF:

METAR-TAF

Aeroports :

Blue Ridge Airport

Martinsville, Virgínia, Estats Units d'Amèrica

latitud: 36-38N, longitud: 080-01W, altitud: 287 m

Observació

L'informe es va fer fa 10 minuts, a les 02:55 UTC
Vent calma
Temperatura 23°C
Humitat 100%
Pressió 1016 hPa
Visibilitat: 8.0 km
Cel clar
boirina

METAR: KMTV 050255Z AUTO 00000KT 5SM BR CLR 23/23 A3000 RMK AO2 T02280227

Hora: 23:05 (03:05 UTC)


TAF: manca

Observacions i pronòstics meteorològics de més de 4000 aeroports (METAR i TAF).

Les estacions disponibles són els punts grocs i vermells al mapa.

Posi el ratolí al punt desitjat per veure el nom de l'estació.

Feu clic per veure les observacions i els pronòstics meteorològics.

Per canviar el mapa: feu clic els botons verds amb una creu de color negre per apropar; al botó verd amb un guió per allunyar la imatge; o en les fletxes verdes per a mapes adjacents.


METAR-TAF: